sensor_id;sensor_type;location;lat;lon;timestamp;temperature;humidity
21807;DHT22;11065;50.786;7.840;2023-07-29T00:00:54;21.30;65.50
21807;DHT22;11065;50.786;7.840;2023-07-29T00:03:23;21.30;65.50
21807;DHT22;11065;50.786;7.840;2023-07-29T00:05:51;21.30;65.50
21807;DHT22;11065;50.786;7.840;2023-07-29T00:08:19;21.40;65.60
21807;DHT22;11065;50.786;7.840;2023-07-29T00:10:48;21.30;66.40
21807;DHT22;11065;50.786;7.840;2023-07-29T00:13:16;21.30;66.00
21807;DHT22;11065;50.786;7.840;2023-07-29T00:15:47;21.30;65.80
21807;DHT22;11065;50.786;7.840;2023-07-29T00:18:15;21.30;65.80
21807;DHT22;11065;50.786;7.840;2023-07-29T00:20:44;21.40;66.00
21807;DHT22;11065;50.786;7.840;2023-07-29T00:23:12;21.30;66.10
21807;DHT22;11065;50.786;7.840;2023-07-29T00:25:40;21.40;66.30
21807;DHT22;11065;50.786;7.840;2023-07-29T00:28:09;21.30;66.40
21807;DHT22;11065;50.786;7.840;2023-07-29T00:30:37;21.40;66.70
21807;DHT22;11065;50.786;7.840;2023-07-29T00:33:05;21.40;66.50
21807;DHT22;11065;50.786;7.840;2023-07-29T00:35:34;21.40;66.50
21807;DHT22;11065;50.786;7.840;2023-07-29T00:38:02;21.40;66.60
21807;DHT22;11065;50.786;7.840;2023-07-29T00:40:31;21.40;66.50
21807;DHT22;11065;50.786;7.840;2023-07-29T00:43:02;21.40;66.70
21807;DHT22;11065;50.786;7.840;2023-07-29T00:45:32;21.40;66.50
21807;DHT22;11065;50.786;7.840;2023-07-29T00:48:01;21.40;66.80
21807;DHT22;11065;50.786;7.840;2023-07-29T00:50:30;21.40;66.70
21807;DHT22;11065;50.786;7.840;2023-07-29T00:53:00;21.40;66.80
21807;DHT22;11065;50.786;7.840;2023-07-29T00:55:28;21.30;66.90
21807;DHT22;11065;50.786;7.840;2023-07-29T00:57:56;21.30;66.90
21807;DHT22;11065;50.786;7.840;2023-07-29T01:00:25;21.30;67.10
21807;DHT22;11065;50.786;7.840;2023-07-29T01:02:54;21.40;67.20
21807;DHT22;11065;50.786;7.840;2023-07-29T01:05:27;21.40;67.50
21807;DHT22;11065;50.786;7.840;2023-07-29T01:08:01;21.40;67.70
21807;DHT22;11065;50.786;7.840;2023-07-29T01:10:37;21.40;67.80
21807;DHT22;11065;50.786;7.840;2023-07-29T01:13:16;21.40;67.80
21807;DHT22;11065;50.786;7.840;2023-07-29T01:15:50;21.40;67.90
21807;DHT22;11065;50.786;7.840;2023-07-29T01:18:23;21.40;67.60
21807;DHT22;11065;50.786;7.840;2023-07-29T01:20:53;21.40;67.50
21807;DHT22;11065;50.786;7.840;2023-07-29T01:23:25;21.40;67.30
21807;DHT22;11065;50.786;7.840;2023-07-29T01:25:54;21.40;67.50
21807;DHT22;11065;50.786;7.840;2023-07-29T01:28:22;21.40;67.10
21807;DHT22;11065;50.786;7.840;2023-07-29T01:30:55;21.40;67.30
21807;DHT22;11065;50.786;7.840;2023-07-29T01:33:26;21.40;67.70
21807;DHT22;11065;50.786;7.840;2023-07-29T01:36:01;21.40;67.60
21807;DHT22;11065;50.786;7.840;2023-07-29T01:38:33;21.50;67.70
21807;DHT22;11065;50.786;7.840;2023-07-29T01:41:03;21.30;67.70
21807;DHT22;11065;50.786;7.840;2023-07-29T01:43:32;21.30;68.20
21807;DHT22;11065;50.786;7.840;2023-07-29T01:46:00;21.30;67.60
21807;DHT22;11065;50.786;7.840;2023-07-29T01:48:28;21.30;67.70
21807;DHT22;11065;50.786;7.840;2023-07-29T01:50:57;21.30;67.70
21807;DHT22;11065;50.786;7.840;2023-07-29T01:53:25;21.30;67.80
21807;DHT22;11065;50.786;7.840;2023-07-29T01:55:54;21.30;68.00
21807;DHT22;11065;50.786;7.840;2023-07-29T01:58:23;21.30;69.00
21807;DHT22;11065;50.786;7.840;2023-07-29T02:00:51;21.30;68.20
21807;DHT22;11065;50.786;7.840;2023-07-29T02:03:19;21.30;68.30
21807;DHT22;11065;50.786;7.840;2023-07-29T02:05:47;21.30;68.50
21807;DHT22;11065;50.786;7.840;2023-07-29T02:08:15;21.30;68.50
21807;DHT22;11065;50.786;7.840;2023-07-29T02:10:43;21.30;68.30
21807;DHT22;11065;50.786;7.840;2023-07-29T02:13:13;21.30;68.40
21807;DHT22;11065;50.786;7.840;2023-07-29T02:15:41;21.30;68.60
21807;DHT22;11065;50.786;7.840;2023-07-29T02:18:09;21.30;68.60
21807;DHT22;11065;50.786;7.840;2023-07-29T02:20:37;21.30;68.70
21807;DHT22;11065;50.786;7.840;2023-07-29T02:23:05;21.40;68.80
21807;DHT22;11065;50.786;7.840;2023-07-29T02:25:35;21.30;68.80
21807;DHT22;11065;50.786;7.840;2023-07-29T02:28:03;21.40;69.10
21807;DHT22;11065;50.786;7.840;2023-07-29T02:30:33;21.40;68.80
21807;DHT22;11065;50.786;7.840;2023-07-29T02:33:01;21.40;68.90
21807;DHT22;11065;50.786;7.840;2023-07-29T02:35:29;21.40;69.50
21807;DHT22;11065;50.786;7.840;2023-07-29T02:37:57;21.40;69.00
21807;DHT22;11065;50.786;7.840;2023-07-29T02:40:25;21.40;69.00
21807;DHT22;11065;50.786;7.840;2023-07-29T02:42:53;21.40;69.00
21807;DHT22;11065;50.786;7.840;2023-07-29T02:45:21;21.40;69.00
21807;DHT22;11065;50.786;7.840;2023-07-29T02:47:50;21.50;69.20
21807;DHT22;11065;50.786;7.840;2023-07-29T02:50:20;21.50;69.10
21807;DHT22;11065;50.786;7.840;2023-07-29T02:52:48;21.60;69.10
21807;DHT22;11065;50.786;7.840;2023-07-29T02:55:17;21.50;68.90
21807;DHT22;11065;50.786;7.840;2023-07-29T02:57:46;21.50;68.70
21807;DHT22;11065;50.786;7.840;2023-07-29T03:00:14;21.50;68.70
21807;DHT22;11065;50.786;7.840;2023-07-29T03:02:42;21.50;68.60
21807;DHT22;11065;50.786;7.840;2023-07-29T03:05:12;21.50;68.50
21807;DHT22;11065;50.786;7.840;2023-07-29T03:07:40;21.60;68.80
21807;DHT22;11065;50.786;7.840;2023-07-29T03:10:09;21.50;68.70
21807;DHT22;11065;50.786;7.840;2023-07-29T03:12:37;21.50;68.80
21807;DHT22;11065;50.786;7.840;2023-07-29T03:15:06;21.50;68.90
21807;DHT22;11065;50.786;7.840;2023-07-29T03:17:34;21.50;68.90
21807;DHT22;11065;50.786;7.840;2023-07-29T03:20:03;21.60;68.90
21807;DHT22;11065;50.786;7.840;2023-07-29T03:22:32;21.50;68.90
21807;DHT22;11065;50.786;7.840;2023-07-29T03:25:00;21.60;69.10
21807;DHT22;11065;50.786;7.840;2023-07-29T03:27:28;21.60;68.90
21807;DHT22;11065;50.786;7.840;2023-07-29T03:29:57;21.60;68.80
21807;DHT22;11065;50.786;7.840;2023-07-29T03:32:26;21.60;68.90
21807;DHT22;11065;50.786;7.840;2023-07-29T03:34:54;21.60;68.80
21807;DHT22;11065;50.786;7.840;2023-07-29T03:37:22;21.60;68.60
21807;DHT22;11065;50.786;7.840;2023-07-29T03:39:51;21.60;68.50
21807;DHT22;11065;50.786;7.840;2023-07-29T03:42:19;21.60;68.50
21807;DHT22;11065;50.786;7.840;2023-07-29T03:44:47;21.60;68.40
21807;DHT22;11065;50.786;7.840;2023-07-29T03:47:15;21.60;68.50
21807;DHT22;11065;50.786;7.840;2023-07-29T03:49:43;21.60;68.50
21807;DHT22;11065;50.786;7.840;2023-07-29T03:52:12;21.60;68.60
21807;DHT22;11065;50.786;7.840;2023-07-29T03:54:40;21.60;68.70
21807;DHT22;11065;50.786;7.840;2023-07-29T03:57:09;21.60;68.90
21807;DHT22;11065;50.786;7.840;2023-07-29T03:59:37;21.60;68.90
21807;DHT22;11065;50.786;7.840;2023-07-29T04:02:05;21.60;69.50
21807;DHT22;11065;50.786;7.840;2023-07-29T04:04:33;21.60;68.90
21807;DHT22;11065;50.786;7.840;2023-07-29T04:07:01;21.60;68.90
21807;DHT22;11065;50.786;7.840;2023-07-29T04:09:29;21.70;69.00
21807;DHT22;11065;50.786;7.840;2023-07-29T04:11:57;21.70;69.00
21807;DHT22;11065;50.786;7.840;2023-07-29T04:14:26;21.70;68.70
21807;DHT22;11065;50.786;7.840;2023-07-29T04:16:54;21.70;68.80
21807;DHT22;11065;50.786;7.840;2023-07-29T04:19:22;21.80;68.80
21807;DHT22;11065;50.786;7.840;2023-07-29T04:21:50;21.70;68.80
21807;DHT22;11065;50.786;7.840;2023-07-29T04:24:18;21.70;68.90
21807;DHT22;11065;50.786;7.840;2023-07-29T04:26:46;21.70;69.00
21807;DHT22;11065;50.786;7.840;2023-07-29T04:29:14;21.70;68.90
21807;DHT22;11065;50.786;7.840;2023-07-29T04:31:44;21.70;68.90
21807;DHT22;11065;50.786;7.840;2023-07-29T04:34:14;21.70;69.00
21807;DHT22;11065;50.786;7.840;2023-07-29T04:36:42;21.70;69.10
21807;DHT22;11065;50.786;7.840;2023-07-29T04:39:10;21.80;69.20
21807;DHT22;11065;50.786;7.840;2023-07-29T04:41:38;21.80;69.00
21807;DHT22;11065;50.786;7.840;2023-07-29T04:44:06;21.80;69.20
21807;DHT22;11065;50.786;7.840;2023-07-29T04:46:35;21.80;69.20
21807;DHT22;11065;50.786;7.840;2023-07-29T04:49:05;21.80;69.20
21807;DHT22;11065;50.786;7.840;2023-07-29T04:51:33;21.80;69.30
21807;DHT22;11065;50.786;7.840;2023-07-29T04:54:01;21.80;69.20
21807;DHT22;11065;50.786;7.840;2023-07-29T04:56:29;21.80;69.00
21807;DHT22;11065;50.786;7.840;2023-07-29T04:58:57;21.80;69.10
21807;DHT22;11065;50.786;7.840;2023-07-29T05:01:25;21.80;69.20
21807;DHT22;11065;50.786;7.840;2023-07-29T05:03:53;21.90;69.30
21807;DHT22;11065;50.786;7.840;2023-07-29T05:06:22;21.90;69.20
21807;DHT22;11065;50.786;7.840;2023-07-29T05:08:50;21.90;69.30
21807;DHT22;11065;50.786;7.840;2023-07-29T05:11:18;21.80;69.10
21807;DHT22;11065;50.786;7.840;2023-07-29T05:13:47;21.90;68.90
21807;DHT22;11065;50.786;7.840;2023-07-29T05:16:14;21.90;68.70
21807;DHT22;11065;50.786;7.840;2023-07-29T05:18:42;21.90;68.70
21807;DHT22;11065;50.786;7.840;2023-07-29T05:21:10;21.90;68.70
21807;DHT22;11065;50.786;7.840;2023-07-29T05:23:42;21.90;68.80
21807;DHT22;11065;50.786;7.840;2023-07-29T05:26:10;22.00;68.90
21807;DHT22;11065;50.786;7.840;2023-07-29T05:28:38;21.90;68.90
21807;DHT22;11065;50.786;7.840;2023-07-29T05:31:06;22.10;68.90
21807;DHT22;11065;50.786;7.840;2023-07-29T05:33:35;22.00;68.60
21807;DHT22;11065;50.786;7.840;2023-07-29T05:36:04;22.00;68.50
21807;DHT22;11065;50.786;7.840;2023-07-29T05:38:32;22.00;68.50
21807;DHT22;11065;50.786;7.840;2023-07-29T05:41:01;22.00;68.60
21807;DHT22;11065;50.786;7.840;2023-07-29T05:43:29;22.10;68.80
21807;DHT22;11065;50.786;7.840;2023-07-29T05:45:57;22.10;68.70
21807;DHT22;11065;50.786;7.840;2023-07-29T05:48:25;22.10;68.70
21807;DHT22;11065;50.786;7.840;2023-07-29T05:50:54;22.10;68.50
21807;DHT22;11065;50.786;7.840;2023-07-29T05:53:22;22.10;68.30
21807;DHT22;11065;50.786;7.840;2023-07-29T05:55:49;22.20;68.20
21807;DHT22;11065;50.786;7.840;2023-07-29T05:58:19;22.10;68.00
21807;DHT22;11065;50.786;7.840;2023-07-29T06:00:48;22.10;67.90
21807;DHT22;11065;50.786;7.840;2023-07-29T06:03:18;22.10;67.80
21807;DHT22;11065;50.786;7.840;2023-07-29T06:05:48;22.10;67.80
21807;DHT22;11065;50.786;7.840;2023-07-29T06:08:20;22.10;68.10
21807;DHT22;11065;50.786;7.840;2023-07-29T06:10:48;22.10;68.20
21807;DHT22;11065;50.786;7.840;2023-07-29T06:13:16;22.10;68.10
21807;DHT22;11065;50.786;7.840;2023-07-29T06:15:45;22.10;67.90
21807;DHT22;11065;50.786;7.840;2023-07-29T06:18:12;22.10;67.90
21807;DHT22;11065;50.786;7.840;2023-07-29T06:20:41;22.10;67.70
21807;DHT22;11065;50.786;7.840;2023-07-29T06:23:09;22.10;67.60
21807;DHT22;11065;50.786;7.840;2023-07-29T06:25:37;22.10;67.70
21807;DHT22;11065;50.786;7.840;2023-07-29T06:28:05;22.10;67.90
21807;DHT22;11065;50.786;7.840;2023-07-29T06:30:33;22.10;67.80
21807;DHT22;11065;50.786;7.840;2023-07-29T06:33:02;22.10;67.70
21807;DHT22;11065;50.786;7.840;2023-07-29T06:35:30;22.10;67.60
21807;DHT22;11065;50.786;7.840;2023-07-29T06:37:58;22.10;67.80
21807;DHT22;11065;50.786;7.840;2023-07-29T06:40:26;22.10;68.00
21807;DHT22;11065;50.786;7.840;2023-07-29T06:42:54;22.10;68.10
21807;DHT22;11065;50.786;7.840;2023-07-29T06:45:22;22.10;68.40
21807;DHT22;11065;50.786;7.840;2023-07-29T06:47:50;22.10;68.30
21807;DHT22;11065;50.786;7.840;2023-07-29T06:50:19;22.10;68.10
21807;DHT22;11065;50.786;7.840;2023-07-29T06:52:47;22.10;68.00
21807;DHT22;11065;50.786;7.840;2023-07-29T06:55:15;22.10;67.90
21807;DHT22;11065;50.786;7.840;2023-07-29T06:57:43;22.20;67.80
21807;DHT22;11065;50.786;7.840;2023-07-29T07:00:11;22.20;67.80
21807;DHT22;11065;50.786;7.840;2023-07-29T07:02:39;22.20;68.00
21807;DHT22;11065;50.786;7.840;2023-07-29T07:05:08;22.20;68.10
21807;DHT22;11065;50.786;7.840;2023-07-29T07:07:37;22.20;68.00
21807;DHT22;11065;50.786;7.840;2023-07-29T07:10:06;22.20;67.80
21807;DHT22;11065;50.786;7.840;2023-07-29T07:12:34;22.30;67.70
21807;DHT22;11065;50.786;7.840;2023-07-29T07:15:03;22.30;67.60
21807;DHT22;11065;50.786;7.840;2023-07-29T07:17:31;22.30;67.70
21807;DHT22;11065;50.786;7.840;2023-07-29T07:19:59;22.30;68.20
21807;DHT22;11065;50.786;7.840;2023-07-29T07:22:27;22.30;67.50
21807;DHT22;11065;50.786;7.840;2023-07-29T07:24:56;22.30;67.60
21807;DHT22;11065;50.786;7.840;2023-07-29T07:27:24;22.30;67.60
21807;DHT22;11065;50.786;7.840;2023-07-29T07:29:52;22.40;67.60
21807;DHT22;11065;50.786;7.840;2023-07-29T07:32:20;22.40;67.60
21807;DHT22;11065;50.786;7.840;2023-07-29T07:34:48;22.40;67.90
21807;DHT22;11065;50.786;7.840;2023-07-29T07:37:16;22.50;68.20
21807;DHT22;11065;50.786;7.840;2023-07-29T07:39:44;22.60;68.50
21807;DHT22;11065;50.786;7.840;2023-07-29T07:42:13;22.70;69.10
21807;DHT22;11065;50.786;7.840;2023-07-29T07:44:41;22.80;68.20
21807;DHT22;11065;50.786;7.840;2023-07-29T07:47:09;22.90;67.70
21807;DHT22;11065;50.786;7.840;2023-07-29T07:49:37;23.00;67.10
21807;DHT22;11065;50.786;7.840;2023-07-29T07:52:06;23.10;66.80
21807;DHT22;11065;50.786;7.840;2023-07-29T07:54:34;23.10;66.90
21807;DHT22;11065;50.786;7.840;2023-07-29T07:57:02;23.20;66.80
21807;DHT22;11065;50.786;7.840;2023-07-29T07:59:31;23.30;66.50
21807;DHT22;11065;50.786;7.840;2023-07-29T08:02:00;23.40;66.30
21807;DHT22;11065;50.786;7.840;2023-07-29T08:04:28;23.50;66.80
21807;DHT22;11065;50.786;7.840;2023-07-29T08:06:56;23.60;66.50
21807;DHT22;11065;50.786;7.840;2023-07-29T08:09:24;23.80;66.30
21807;DHT22;11065;50.786;7.840;2023-07-29T08:11:52;23.90;65.60
21807;DHT22;11065;50.786;7.840;2023-07-29T08:14:20;24.00;65.50
21807;DHT22;11065;50.786;7.840;2023-07-29T08:16:49;24.10;65.90
21807;DHT22;11065;50.786;7.840;2023-07-29T08:19:17;24.30;64.60
21807;DHT22;11065;50.786;7.840;2023-07-29T08:21:48;24.40;64.20
21807;DHT22;11065;50.786;7.840;2023-07-29T08:24:16;24.60;63.40
21807;DHT22;11065;50.786;7.840;2023-07-29T08:26:44;24.60;63.00
21807;DHT22;11065;50.786;7.840;2023-07-29T08:29:12;24.70;62.30
21807;DHT22;11065;50.786;7.840;2023-07-29T08:31:40;24.80;62.00
21807;DHT22;11065;50.786;7.840;2023-07-29T08:34:09;24.80;62.60
21807;DHT22;11065;50.786;7.840;2023-07-29T08:36:37;24.90;61.20
21807;DHT22;11065;50.786;7.840;2023-07-29T08:39:05;25.00;61.20
21807;DHT22;11065;50.786;7.840;2023-07-29T08:41:39;25.10;61.20
21807;DHT22;11065;50.786;7.840;2023-07-29T08:44:11;25.20;59.90
21807;DHT22;11065;50.786;7.840;2023-07-29T08:46:40;25.30;60.10
21807;DHT22;11065;50.786;7.840;2023-07-29T08:49:11;25.30;60.40
21807;DHT22;11065;50.786;7.840;2023-07-29T08:51:42;25.40;59.70
21807;DHT22;11065;50.786;7.840;2023-07-29T08:54:10;25.60;60.00
21807;DHT22;11065;50.786;7.840;2023-07-29T08:56:40;25.80;60.30
21807;DHT22;11065;50.786;7.840;2023-07-29T08:59:08;26.00;60.30
21807;DHT22;11065;50.786;7.840;2023-07-29T09:01:38;26.20;59.80
21807;DHT22;11065;50.786;7.840;2023-07-29T09:04:06;26.40;59.20
21807;DHT22;11065;50.786;7.840;2023-07-29T09:06:36;26.60;59.10
21807;DHT22;11065;50.786;7.840;2023-07-29T09:09:07;26.70;57.60
21807;DHT22;11065;50.786;7.840;2023-07-29T09:11:35;26.80;57.10
21807;DHT22;11065;50.786;7.840;2023-07-29T09:14:03;26.80;57.00
21807;DHT22;11065;50.786;7.840;2023-07-29T09:16:32;26.90;57.50
21807;DHT22;11065;50.786;7.840;2023-07-29T09:19:02;27.10;57.50
21807;DHT22;11065;50.786;7.840;2023-07-29T09:21:31;27.20;56.90
21807;DHT22;11065;50.786;7.840;2023-07-29T09:24:04;27.40;56.50
21807;DHT22;11065;50.786;7.840;2023-07-29T09:26:34;27.50;55.20
21807;DHT22;11065;50.786;7.840;2023-07-29T09:29:03;27.50;55.30
21807;DHT22;11065;50.786;7.840;2023-07-29T09:31:31;27.50;54.70
21807;DHT22;11065;50.786;7.840;2023-07-29T09:34:01;27.50;54.40
21807;DHT22;11065;50.786;7.840;2023-07-29T09:36:31;27.40;54.20
21807;DHT22;11065;50.786;7.840;2023-07-29T09:38:59;27.30;53.80
21807;DHT22;11065;50.786;7.840;2023-07-29T09:41:29;27.20;53.90
21807;DHT22;11065;50.786;7.840;2023-07-29T09:44:01;27.10;53.20
21807;DHT22;11065;50.786;7.840;2023-07-29T09:46:33;27.00;53.30
21807;DHT22;11065;50.786;7.840;2023-07-29T09:49:03;26.90;53.30
21807;DHT22;11065;50.786;7.840;2023-07-29T09:51:31;27.00;54.10
21807;DHT22;11065;50.786;7.840;2023-07-29T09:54:02;27.00;54.50
21807;DHT22;11065;50.786;7.840;2023-07-29T09:56:32;27.20;54.20
21807;DHT22;11065;50.786;7.840;2023-07-29T09:59:00;27.40;54.70
21807;DHT22;11065;50.786;7.840;2023-07-29T10:01:32;27.60;54.40
21807;DHT22;11065;50.786;7.840;2023-07-29T10:04:03;27.80;53.30
21807;DHT22;11065;50.786;7.840;2023-07-29T10:06:33;27.80;52.50
21807;DHT22;11065;50.786;7.840;2023-07-29T10:09:03;27.80;52.00
21807;DHT22;11065;50.786;7.840;2023-07-29T10:11:33;27.70;51.70
21807;DHT22;11065;50.786;7.840;2023-07-29T10:14:02;27.60;50.90
21807;DHT22;11065;50.786;7.840;2023-07-29T10:16:34;27.40;50.60
21807;DHT22;11065;50.786;7.840;2023-07-29T10:19:04;27.20;50.50
21807;DHT22;11065;50.786;7.840;2023-07-29T10:21:33;27.00;50.40
21807;DHT22;11065;50.786;7.840;2023-07-29T10:24:06;26.80;50.60
21807;DHT22;11065;50.786;7.840;2023-07-29T10:26:40;26.60;50.70
21807;DHT22;11065;50.786;7.840;2023-07-29T10:29:12;26.50;50.40
21807;DHT22;11065;50.786;7.840;2023-07-29T10:31:43;26.30;50.80
21807;DHT22;11065;50.786;7.840;2023-07-29T10:34:12;26.20;50.80
21807;DHT22;11065;50.786;7.840;2023-07-29T10:36:41;26.10;51.00
21807;DHT22;11065;50.786;7.840;2023-07-29T10:39:10;26.00;51.10
21807;DHT22;11065;50.786;7.840;2023-07-29T10:41:57;25.80;51.80
21807;DHT22;11065;50.786;7.840;2023-07-29T10:44:50;25.70;51.10
21807;DHT22;11065;50.786;7.840;2023-07-29T10:47:21;25.50;51.40
21807;DHT22;11065;50.786;7.840;2023-07-29T10:49:51;25.50;52.00
21807;DHT22;11065;50.786;7.840;2023-07-29T10:52:32;25.40;52.10
21807;DHT22;11065;50.786;7.840;2023-07-29T10:55:23;25.30;52.00
21807;DHT22;11065;50.786;7.840;2023-07-29T10:58:05;25.20;52.10
21807;DHT22;11065;50.786;7.840;2023-07-29T11:00:33;25.10;51.90
21807;DHT22;11065;50.786;7.840;2023-07-29T11:03:03;25.00;52.40
21807;DHT22;11065;50.786;7.840;2023-07-29T11:05:46;25.00;52.60
21807;DHT22;11065;50.786;7.840;2023-07-29T11:08:22;24.90;52.80
21807;DHT22;11065;50.786;7.840;2023-07-29T11:10:59;25.00;53.20
21807;DHT22;11065;50.786;7.840;2023-07-29T11:13:30;25.00;53.10
21807;DHT22;11065;50.786;7.840;2023-07-29T11:15:58;25.00;53.50
21807;DHT22;11065;50.786;7.840;2023-07-29T11:18:29;25.10;54.20
21807;DHT22;11065;50.786;7.840;2023-07-29T11:20:58;25.30;54.10
21807;DHT22;11065;50.786;7.840;2023-07-29T11:23:30;25.50;54.50
21807;DHT22;11065;50.786;7.840;2023-07-29T11:25:59;25.70;54.30
21807;DHT22;11065;50.786;7.840;2023-07-29T11:28:29;25.90;54.40
21807;DHT22;11065;50.786;7.840;2023-07-29T11:30:58;26.10;54.30
21807;DHT22;11065;50.786;7.840;2023-07-29T11:33:27;26.30;54.40
21807;DHT22;11065;50.786;7.840;2023-07-29T11:35:55;26.50;54.80
21807;DHT22;11065;50.786;7.840;2023-07-29T11:38:23;26.90;55.10
21807;DHT22;11065;50.786;7.840;2023-07-29T11:40:56;27.30;55.20
21807;DHT22;11065;50.786;7.840;2023-07-29T11:43:24;27.70;53.40
21807;DHT22;11065;50.786;7.840;2023-07-29T11:45:54;28.00;53.20
21807;DHT22;11065;50.786;7.840;2023-07-29T11:48:30;28.20;53.40
21807;DHT22;11065;50.786;7.840;2023-07-29T11:50:59;28.50;52.70
21807;DHT22;11065;50.786;7.840;2023-07-29T11:53:29;28.90;52.90
21807;DHT22;11065;50.786;7.840;2023-07-29T11:55:58;29.00;51.50
21807;DHT22;11065;50.786;7.840;2023-07-29T11:58:26;29.10;50.70
21807;DHT22;11065;50.786;7.840;2023-07-29T12:00:56;29.10;50.00
21807;DHT22;11065;50.786;7.840;2023-07-29T12:03:25;29.00;49.50
21807;DHT22;11065;50.786;7.840;2023-07-29T12:05:53;28.90;49.30
21807;DHT22;11065;50.786;7.840;2023-07-29T12:08:22;28.70;48.10
21807;DHT22;11065;50.786;7.840;2023-07-29T12:10:50;28.50;48.60
21807;DHT22;11065;50.786;7.840;2023-07-29T12:13:18;28.30;48.60
21807;DHT22;11065;50.786;7.840;2023-07-29T12:15:46;28.00;48.50
21807;DHT22;11065;50.786;7.840;2023-07-29T12:18:15;27.90;48.90
21807;DHT22;11065;50.786;7.840;2023-07-29T12:20:43;27.70;48.90
21807;DHT22;11065;50.786;7.840;2023-07-29T12:23:11;27.50;49.20
21807;DHT22;11065;50.786;7.840;2023-07-29T12:25:39;27.30;49.30
21807;DHT22;11065;50.786;7.840;2023-07-29T12:28:07;27.10;49.30
21807;DHT22;11065;50.786;7.840;2023-07-29T12:30:41;26.90;49.50
21807;DHT22;11065;50.786;7.840;2023-07-29T12:33:09;26.90;49.60
21807;DHT22;11065;50.786;7.840;2023-07-29T12:35:39;26.60;49.50
21807;DHT22;11065;50.786;7.840;2023-07-29T12:38:07;26.50;49.70
21807;DHT22;11065;50.786;7.840;2023-07-29T12:40:38;26.40;49.90
21807;DHT22;11065;50.786;7.840;2023-07-29T12:43:07;26.30;50.00
21807;DHT22;11065;50.786;7.840;2023-07-29T12:45:38;26.30;50.50
21807;DHT22;11065;50.786;7.840;2023-07-29T12:48:08;26.30;50.90
21807;DHT22;11065;50.786;7.840;2023-07-29T12:50:36;26.30;51.20
21807;DHT22;11065;50.786;7.840;2023-07-29T12:53:07;26.50;51.90
21807;DHT22;11065;50.786;7.840;2023-07-29T12:55:37;26.70;52.20
21807;DHT22;11065;50.786;7.840;2023-07-29T12:58:05;27.10;52.90
21807;DHT22;11065;50.786;7.840;2023-07-29T13:00:32;27.50;53.00
21807;DHT22;11065;50.786;7.840;2023-07-29T13:03:00;28.00;52.90
21807;DHT22;11065;50.786;7.840;2023-07-29T13:05:32;28.50;53.10
21807;DHT22;11065;50.786;7.840;2023-07-29T13:08:00;29.00;52.50
21807;DHT22;11065;50.786;7.840;2023-07-29T13:10:29;29.50;52.20
21807;DHT22;11065;50.786;7.840;2023-07-29T13:12:57;29.90;51.50
21807;DHT22;11065;50.786;7.840;2023-07-29T13:15:26;30.40;51.20
21807;DHT22;11065;50.786;7.840;2023-07-29T13:17:54;30.80;50.40
21807;DHT22;11065;50.786;7.840;2023-07-29T13:20:22;31.10;49.00
21807;DHT22;11065;50.786;7.840;2023-07-29T13:22:49;31.50;49.00
21807;DHT22;11065;50.786;7.840;2023-07-29T13:25:17;31.70;48.40
21807;DHT22;11065;50.786;7.840;2023-07-29T13:27:47;31.90;48.10
21807;DHT22;11065;50.786;7.840;2023-07-29T13:30:15;32.10;47.60
21807;DHT22;11065;50.786;7.840;2023-07-29T13:32:43;32.30;47.00
21807;DHT22;11065;50.786;7.840;2023-07-29T13:35:11;32.50;47.00
21807;DHT22;11065;50.786;7.840;2023-07-29T13:37:39;32.60;46.90
21807;DHT22;11065;50.786;7.840;2023-07-29T13:40:07;32.80;46.80
21807;DHT22;11065;50.786;7.840;2023-07-29T13:42:35;33.00;46.40
21807;DHT22;11065;50.786;7.840;2023-07-29T13:45:05;33.10;46.10
21807;DHT22;11065;50.786;7.840;2023-07-29T13:47:33;33.30;45.20
21807;DHT22;11065;50.786;7.840;2023-07-29T13:50:02;33.20;44.80
21807;DHT22;11065;50.786;7.840;2023-07-29T13:52:30;33.20;43.90
21807;DHT22;11065;50.786;7.840;2023-07-29T13:54:58;33.00;43.40
21807;DHT22;11065;50.786;7.840;2023-07-29T13:57:26;32.80;43.10
21807;DHT22;11065;50.786;7.840;2023-07-29T13:59:54;32.50;42.70
21807;DHT22;11065;50.786;7.840;2023-07-29T14:02:24;32.20;42.70
21807;DHT22;11065;50.786;7.840;2023-07-29T14:04:53;31.90;42.60
21807;DHT22;11065;50.786;7.840;2023-07-29T14:07:21;31.60;42.60
21807;DHT22;11065;50.786;7.840;2023-07-29T14:09:49;31.40;42.90
21807;DHT22;11065;50.786;7.840;2023-07-29T14:12:17;31.10;43.00
21807;DHT22;11065;50.786;7.840;2023-07-29T14:14:45;30.90;43.20
21807;DHT22;11065;50.786;7.840;2023-07-29T14:17:13;30.80;43.10
21807;DHT22;11065;50.786;7.840;2023-07-29T14:19:43;30.60;43.20
21807;DHT22;11065;50.786;7.840;2023-07-29T14:22:10;30.40;43.00
21807;DHT22;11065;50.786;7.840;2023-07-29T14:24:38;30.20;43.20
21807;DHT22;11065;50.786;7.840;2023-07-29T14:27:06;30.00;43.30
21807;DHT22;11065;50.786;7.840;2023-07-29T14:29:34;29.90;43.40
21807;DHT22;11065;50.786;7.840;2023-07-29T14:32:03;29.70;43.70
21807;DHT22;11065;50.786;7.840;2023-07-29T14:34:31;29.50;43.90
21807;DHT22;11065;50.786;7.840;2023-07-29T14:37:00;29.50;44.10
21807;DHT22;11065;50.786;7.840;2023-07-29T14:39:28;29.40;44.10
21807;DHT22;11065;50.786;7.840;2023-07-29T14:41:56;29.20;44.20
21807;DHT22;11065;50.786;7.840;2023-07-29T14:44:25;29.10;44.30
21807;DHT22;11065;50.786;7.840;2023-07-29T14:46:52;29.00;44.40
21807;DHT22;11065;50.786;7.840;2023-07-29T14:49:21;29.00;44.40
21807;DHT22;11065;50.786;7.840;2023-07-29T14:51:49;28.80;44.20
21807;DHT22;11065;50.786;7.840;2023-07-29T14:54:18;28.70;44.00
21807;DHT22;11065;50.786;7.840;2023-07-29T14:56:46;28.60;44.30
21807;DHT22;11065;50.786;7.840;2023-07-29T14:59:14;28.40;44.70
21807;DHT22;11065;50.786;7.840;2023-07-29T15:01:42;28.30;44.90
21807;DHT22;11065;50.786;7.840;2023-07-29T15:04:10;28.20;45.00
21807;DHT22;11065;50.786;7.840;2023-07-29T15:06:38;28.10;45.20
21807;DHT22;11065;50.786;7.840;2023-07-29T15:09:06;28.10;45.60
21807;DHT22;11065;50.786;7.840;2023-07-29T15:11:36;28.10;45.70
21807;DHT22;11065;50.786;7.840;2023-07-29T15:14:04;28.10;45.70
21807;DHT22;11065;50.786;7.840;2023-07-29T15:16:32;28.10;45.60
21807;DHT22;11065;50.786;7.840;2023-07-29T15:19:03;28.10;45.40
21807;DHT22;11065;50.786;7.840;2023-07-29T15:21:31;28.10;45.40
21807;DHT22;11065;50.786;7.840;2023-07-29T15:24:00;28.10;45.50
21807;DHT22;11065;50.786;7.840;2023-07-29T15:26:28;28.10;45.50
21807;DHT22;11065;50.786;7.840;2023-07-29T15:28:59;28.10;45.70
21807;DHT22;11065;50.786;7.840;2023-07-29T15:31:28;28.20;45.40
21807;DHT22;11065;50.786;7.840;2023-07-29T15:33:56;28.20;45.30
21807;DHT22;11065;50.786;7.840;2023-07-29T15:36:24;28.20;45.30
21807;DHT22;11065;50.786;7.840;2023-07-29T15:38:53;28.10;45.30
21807;DHT22;11065;50.786;7.840;2023-07-29T15:41:21;28.00;45.30